createdAt,value
2018-06-28T00:01:37.447Z,15.30
2018-06-28T00:04:07.195Z,15.30
2018-06-28T00:06:36.894Z,15.30
2018-06-28T00:09:07.975Z,15.30
2018-06-28T00:11:38.740Z,15.20
2018-06-28T00:14:08.478Z,15.20
2018-06-28T00:16:38.265Z,15.20
2018-06-28T00:19:08.334Z,15.20
2018-06-28T00:21:38.194Z,15.20
2018-06-28T00:24:07.936Z,15.20
2018-06-28T00:26:37.714Z,15.10
2018-06-28T00:29:07.640Z,15.10
2018-06-28T00:31:37.371Z,15.10
2018-06-28T00:34:07.502Z,15.00
2018-06-28T00:36:37.215Z,15.00
2018-06-28T00:39:08.815Z,15.00
2018-06-28T00:41:38.863Z,15.00
2018-06-28T00:44:09.271Z,14.90
2018-06-28T00:46:39.415Z,14.90
2018-06-28T00:49:09.296Z,14.90
2018-06-28T00:51:39.382Z,14.70
2018-06-28T00:54:09.495Z,14.70
2018-06-28T00:56:39.254Z,14.60
2018-06-28T00:59:09.266Z,14.60
2018-06-28T01:01:39.008Z,14.50
2018-06-28T01:04:08.749Z,14.50
2018-06-28T01:06:38.466Z,14.50
2018-06-28T01:09:09.862Z,14.50
2018-06-28T01:11:40.056Z,14.40
2018-06-28T01:14:09.795Z,14.40
2018-06-28T01:16:40.036Z,14.40
2018-06-28T01:19:09.851Z,14.40
2018-06-28T01:21:39.556Z,14.40
2018-06-28T01:24:09.635Z,14.40
2018-06-28T01:26:39.322Z,14.40
2018-06-28T01:29:09.026Z,14.40
2018-06-28T01:31:38.698Z,14.40
2018-06-28T01:34:08.747Z,14.40
2018-06-28T01:36:38.442Z,14.40
2018-06-28T01:39:09.963Z,14.30
2018-06-28T01:41:51.631Z,14.30
2018-06-28T01:44:21.654Z,14.20
2018-06-28T01:46:51.392Z,14.20
2018-06-28T01:49:21.263Z,14.10
2018-06-28T01:51:50.951Z,14.00
2018-06-28T01:54:20.632Z,14.00
2018-06-28T01:56:50.412Z,14.00
2018-06-28T01:59:20.147Z,14.00
2018-06-28T02:01:49.941Z,14.00
2018-06-28T02:04:19.723Z,14.00
2018-06-28T02:06:49.627Z,14.00
2018-06-28T02:09:19.342Z,14.00
2018-06-28T02:11:49.111Z,14.00
2018-06-28T02:14:19.458Z,14.00
2018-06-28T02:16:49.342Z,14.00
2018-06-28T02:19:19.176Z,14.00
2018-06-28T02:21:48.998Z,14.00
2018-06-28T02:24:18.914Z,13.90
2018-06-28T02:26:48.735Z,13.60
2018-06-28T02:29:18.466Z,13.60
2018-06-28T02:31:48.171Z,13.70
2018-06-28T02:34:17.962Z,13.70
2018-06-28T02:36:47.689Z,13.70
2018-06-28T02:39:17.804Z,13.60
2018-06-28T02:41:47.530Z,13.50
2018-06-28T02:44:17.271Z,13.50
2018-06-28T02:46:47.021Z,13.50
2018-06-28T02:49:16.761Z,13.50
2018-06-28T02:51:46.447Z,13.50
2018-06-28T02:54:16.175Z,13.50
2018-06-28T02:56:45.894Z,13.40
2018-06-28T02:59:15.612Z,13.40
2018-06-28T03:01:45.314Z,13.40
2018-06-28T03:04:15.028Z,13.40
2018-06-28T03:06:44.749Z,13.40
2018-06-28T03:09:14.448Z,13.40
2018-06-28T03:11:44.187Z,13.40
2018-06-28T03:14:13.892Z,13.40
2018-06-28T03:16:43.967Z,13.40
2018-06-28T03:19:13.676Z,13.30
2018-06-28T03:21:43.410Z,13.40
2018-06-28T03:24:13.122Z,13.40
2018-06-28T03:26:42.818Z,13.30
2018-06-28T03:29:12.543Z,13.20
2018-06-28T03:31:42.253Z,13.20
2018-06-28T03:34:11.963Z,13.00
2018-06-28T03:36:41.659Z,12.90
2018-06-28T03:39:13.015Z,12.90
2018-06-28T03:41:42.952Z,12.80
2018-06-28T03:44:13.663Z,12.90
2018-06-28T03:46:43.457Z,13.00
2018-06-28T03:49:13.318Z,13.10
2018-06-28T03:51:43.026Z,13.10
2018-06-28T03:54:12.766Z,13.10
2018-06-28T03:56:42.480Z,13.10
2018-06-28T03:59:12.251Z,13.10
2018-06-28T04:01:45.270Z,13.20
2018-06-28T04:04:16.016Z,13.20
2018-06-28T04:06:45.965Z,13.20
2018-06-28T04:09:17.928Z,13.30
2018-06-28T04:11:47.640Z,13.30
2018-06-28T04:14:17.753Z,13.40
2018-06-28T04:16:47.577Z,13.40
2018-06-28T04:19:19.738Z,13.40
2018-06-28T04:21:49.640Z,13.50
2018-06-28T04:24:19.497Z,13.50
2018-06-28T04:26:49.255Z,13.50
2018-06-28T04:29:18.989Z,13.50
2018-06-28T04:31:53.174Z,13.60
2018-06-28T04:34:23.759Z,13.60
2018-06-28T04:36:53.496Z,13.70
2018-06-28T04:39:25.101Z,13.70
2018-06-28T04:41:56.209Z,13.70
2018-06-28T04:44:27.624Z,13.80
2018-06-28T04:46:57.427Z,13.80
2018-06-28T04:49:27.131Z,13.80
2018-06-28T04:51:56.828Z,13.80
2018-06-28T04:54:26.496Z,13.80
2018-06-28T04:56:56.215Z,13.70
2018-06-28T04:59:25.908Z,13.70
2018-06-28T05:01:55.587Z,13.70
2018-06-28T05:04:25.288Z,13.70
2018-06-28T05:06:55.041Z,13.70
2018-06-28T05:09:24.730Z,13.80
2018-06-28T05:11:54.461Z,13.80
2018-06-28T05:14:24.171Z,13.80
2018-06-28T05:16:53.965Z,13.80
2018-06-28T05:19:23.676Z,13.80
2018-06-28T05:21:53.392Z,13.90
2018-06-28T05:24:23.099Z,14.00
2018-06-28T05:26:52.857Z,14.10
2018-06-28T05:29:22.539Z,14.30
2018-06-28T05:31:52.531Z,14.50
2018-06-28T05:34:22.642Z,14.60
2018-06-28T05:36:52.589Z,14.90
2018-06-28T05:39:23.347Z,15.00
2018-06-28T05:41:53.065Z,15.10
2018-06-28T05:44:22.781Z,15.20
2018-06-28T05:46:52.673Z,15.20
2018-06-28T05:49:22.582Z,15.30
2018-06-28T05:51:52.454Z,15.50
2018-06-28T05:54:22.437Z,15.70
2018-06-28T05:56:52.567Z,16.00
2018-06-28T05:59:22.287Z,16.20
2018-06-28T06:01:52.370Z,16.20
2018-06-28T06:04:22.077Z,16.50
2018-06-28T06:06:51.756Z,16.90
2018-06-28T06:09:21.448Z,17.20
2018-06-28T06:11:51.193Z,17.10
2018-06-28T06:14:20.887Z,16.70
2018-06-28T06:16:50.622Z,16.60
2018-06-28T06:19:21.052Z,16.60
2018-06-28T06:21:50.741Z,16.90
2018-06-28T06:24:20.596Z,17.70
2018-06-28T06:26:50.367Z,18.50
2018-06-28T06:29:20.267Z,19.00
2018-06-28T06:31:50.280Z,19.00
2018-06-28T06:34:19.991Z,19.20
2018-06-28T06:36:49.643Z,19.50
2018-06-28T06:39:19.331Z,19.70
2018-06-28T06:41:49.101Z,19.50
2018-06-28T06:44:18.798Z,19.40
2018-06-28T06:46:48.459Z,19.50
2018-06-28T06:49:18.339Z,19.20
2018-06-28T06:51:48.498Z,19.50
2018-06-28T06:54:18.312Z,19.80
2018-06-28T06:56:48.052Z,20.00
2018-06-28T06:59:17.797Z,20.20
2018-06-28T07:01:47.540Z,20.20
2018-06-28T07:04:17.243Z,20.40
2018-06-28T07:06:47.315Z,20.30
2018-06-28T07:09:17.157Z,20.10
2018-06-28T07:11:46.869Z,19.90
2018-06-28T07:14:16.597Z,19.60
2018-06-28T07:16:46.307Z,19.40
2018-06-28T07:19:15.988Z,19.30
2018-06-28T07:21:46.043Z,19.30
2018-06-28T07:24:15.857Z,19.50
2018-06-28T07:26:45.647Z,19.50
2018-06-28T07:29:15.306Z,19.50
2018-06-28T07:31:45.023Z,19.60
2018-06-28T07:34:14.879Z,19.30
2018-06-28T07:36:44.606Z,19.30
2018-06-28T07:39:14.642Z,19.20
2018-06-28T07:41:44.339Z,19.10
2018-06-28T07:44:14.416Z,19.20
2018-06-28T07:46:44.147Z,19.20
2018-06-28T07:51:43.323Z,19.30
2018-06-28T07:54:13.023Z,19.10
2018-06-28T07:56:42.700Z,19.20
2018-06-28T07:59:12.735Z,19.30
2018-06-28T08:01:42.411Z,19.30
2018-06-28T08:04:12.091Z,19.30
2018-06-28T08:06:41.827Z,19.10
2018-06-28T08:09:11.631Z,19.20
2018-06-28T08:11:41.327Z,19.30
2018-06-28T08:14:11.052Z,19.40
2018-06-28T08:16:40.778Z,19.40
2018-06-28T08:19:10.865Z,19.40
2018-06-28T08:21:40.597Z,19.40
2018-06-28T08:24:10.334Z,19.60
2018-06-28T08:26:40.046Z,19.80
2018-06-28T08:29:09.762Z,19.90
2018-06-28T08:31:39.832Z,20.30
2018-06-28T08:34:09.647Z,20.50
2018-06-28T08:36:39.374Z,20.70
2018-06-28T08:39:10.312Z,20.60
2018-06-28T08:41:40.032Z,20.70
2018-06-28T08:44:09.772Z,20.90
2018-06-28T08:46:39.479Z,21.00
2018-06-28T08:49:09.556Z,21.20
2018-06-28T08:51:39.308Z,21.40
2018-06-28T08:54:09.405Z,21.60
2018-06-28T08:56:39.315Z,21.60
2018-06-28T08:59:09.211Z,21.40
2018-06-28T09:01:38.911Z,21.10
2018-06-28T09:04:08.651Z,20.80
2018-06-28T09:06:38.554Z,20.80
2018-06-28T09:09:10.198Z,20.70
2018-06-28T09:11:40.200Z,20.60
2018-06-28T09:16:39.771Z,20.30
2018-06-28T09:19:09.508Z,20.20
2018-06-28T09:21:39.209Z,20.30
2018-06-28T09:24:08.945Z,20.40
2018-06-28T09:26:38.660Z,20.60
2018-06-28T09:29:08.410Z,20.80
2018-06-28T09:31:38.478Z,21.10
2018-06-28T09:34:08.966Z,21.30
2018-06-28T09:36:38.711Z,21.50
2018-06-28T09:39:10.106Z,21.50
2018-06-28T09:41:39.838Z,21.50
2018-06-28T09:44:09.580Z,21.60
2018-06-28T09:46:39.290Z,21.60
2018-06-28T09:49:09.025Z,21.60
2018-06-28T09:51:39.135Z,21.70
2018-06-28T09:54:09.190Z,21.70
2018-06-28T09:56:38.969Z,21.70
2018-06-28T09:59:08.740Z,21.60
2018-06-28T10:01:38.798Z,21.40
2018-06-28T10:04:08.920Z,21.20
2018-06-28T10:06:38.701Z,21.10
2018-06-28T10:09:09.404Z,21.00
2018-06-28T10:11:39.430Z,21.00
2018-06-28T10:14:09.179Z,21.00
2018-06-28T10:16:38.923Z,21.20
2018-06-28T10:19:08.659Z,21.30
2018-06-28T10:21:38.498Z,21.50
2018-06-28T10:24:08.620Z,21.70
2018-06-28T10:26:38.797Z,21.70
2018-06-28T10:29:09.832Z,21.90
2018-06-28T10:31:41.024Z,22.00
2018-06-28T10:34:10.759Z,22.00
2018-06-28T10:36:40.464Z,22.00
2018-06-28T10:39:11.213Z,22.00
2018-06-28T10:41:40.957Z,22.10
2018-06-28T10:44:10.748Z,22.30
2018-06-28T10:46:46.597Z,22.30
2018-06-28T10:49:17.782Z,22.20
2018-06-28T10:51:47.558Z,22.00
2018-06-28T10:54:21.014Z,21.90
2018-06-28T10:56:52.059Z,21.50
2018-06-28T10:59:21.782Z,21.40
2018-06-28T11:01:51.587Z,21.50
2018-06-28T11:04:21.496Z,21.50
2018-06-28T11:06:51.238Z,21.40
2018-06-28T11:09:23.013Z,21.30
2018-06-28T11:11:52.769Z,21.20
2018-06-28T11:14:23.603Z,21.00
2018-06-28T11:17:01.647Z,20.80
2018-06-28T11:22:17.507Z,21.10
2018-06-28T11:24:48.795Z,21.20
2018-06-28T11:27:26.176Z,21.20
2018-06-28T11:30:16.058Z,21.40
2018-06-28T11:32:58.638Z,21.30
2018-06-28T11:35:36.446Z,21.30
2018-06-28T11:38:17.964Z,21.30
2018-06-28T11:40:56.533Z,21.40
2018-06-28T11:43:28.166Z,21.40
2018-06-28T11:46:05.263Z,21.50
2018-06-28T11:48:41.173Z,21.60
2018-06-28T11:51:17.611Z,21.60
2018-06-28T11:54:02.365Z,21.60
2018-06-28T11:56:35.751Z,21.60
2018-06-28T11:59:08.883Z,21.60
2018-06-28T12:01:38.711Z,21.70
2018-06-28T12:04:13.123Z,21.70
2018-06-28T12:06:53.043Z,21.90
2018-06-28T12:09:28.574Z,22.10
2018-06-28T12:12:03.758Z,22.10
2018-06-28T12:14:35.257Z,22.10
2018-06-28T12:17:05.309Z,22.20
2018-06-28T12:19:34.987Z,22.10
2018-06-28T12:22:07.376Z,22.20
2018-06-28T12:24:38.478Z,22.10
2018-06-28T12:27:08.654Z,22.10
2018-06-28T12:29:46.966Z,22.10
2018-06-28T12:32:17.364Z,22.00
2018-06-28T12:34:49.115Z,22.00
2018-06-28T12:37:19.743Z,22.00
2018-06-28T12:39:49.866Z,21.90
2018-06-28T12:42:20.044Z,21.80
2018-06-28T12:44:49.844Z,21.70
2018-06-28T12:47:56.604Z,21.60
2018-06-28T12:50:26.775Z,21.50
2018-06-28T12:52:59.314Z,21.50
2018-06-28T12:55:45.458Z,21.40
2018-06-28T12:58:19.394Z,21.30
2018-06-28T13:00:55.681Z,21.20
2018-06-28T13:03:28.746Z,21.10
2018-06-28T13:05:58.452Z,21.00
2018-06-28T13:08:28.220Z,20.90
2018-06-28T13:10:57.958Z,20.90
2018-06-28T13:13:27.763Z,20.80
2018-06-28T13:15:57.676Z,20.60
2018-06-28T13:18:27.403Z,20.50
2018-06-28T13:20:57.102Z,20.60
2018-06-28T13:23:26.830Z,20.60
2018-06-28T13:25:56.580Z,20.60
2018-06-28T13:28:26.367Z,20.50
2018-06-28T13:30:56.494Z,20.60
2018-06-28T13:33:26.539Z,20.60
2018-06-28T13:35:56.451Z,20.60
2018-06-28T13:38:26.476Z,20.60
2018-06-28T13:40:56.480Z,20.50
2018-06-28T13:43:26.623Z,20.50
2018-06-28T13:45:59.683Z,20.40
2018-06-28T13:48:29.502Z,20.40
2018-06-28T13:50:59.299Z,20.40
2018-06-28T13:53:29.092Z,20.40
2018-06-28T13:55:58.867Z,20.40
2018-06-28T13:58:28.635Z,20.40
2018-06-28T14:00:58.407Z,20.40
2018-06-28T14:03:28.274Z,20.40
2018-06-28T14:05:58.132Z,20.30
2018-06-28T14:08:27.900Z,20.40
2018-06-28T14:10:57.742Z,20.40
2018-06-28T14:13:27.481Z,20.40
2018-06-28T14:15:57.280Z,20.30
2018-06-28T14:18:27.111Z,20.20
2018-06-28T14:20:56.992Z,20.20
2018-06-28T14:23:26.791Z,20.10
2018-06-28T14:25:56.760Z,20.10
2018-06-28T14:28:26.775Z,20.00
2018-06-28T14:30:56.603Z,19.90
2018-06-28T14:33:26.353Z,19.90
2018-06-28T14:35:56.408Z,20.00
2018-06-28T14:38:26.164Z,20.00
2018-06-28T14:40:55.902Z,20.00
2018-06-28T14:43:25.642Z,20.00
2018-06-28T14:45:55.396Z,20.00
2018-06-28T14:48:25.119Z,20.10
2018-06-28T14:50:54.840Z,20.10
2018-06-28T14:53:24.891Z,20.10
2018-06-28T14:55:54.629Z,20.10
2018-06-28T14:58:24.382Z,20.00
2018-06-28T15:03:23.430Z,20.10
2018-06-28T15:05:53.131Z,20.10
2018-06-28T15:08:22.918Z,20.20
2018-06-28T15:10:53.048Z,20.20
2018-06-28T15:13:22.815Z,20.30
2018-06-28T15:15:52.940Z,20.30
2018-06-28T15:18:22.704Z,20.40
2018-06-28T15:20:52.518Z,20.30
2018-06-28T15:23:22.264Z,20.30
2018-06-28T15:25:52.049Z,20.20
2018-06-28T15:28:21.811Z,20.20
2018-06-28T15:30:51.571Z,20.30
2018-06-28T15:33:21.347Z,20.30
2018-06-28T15:35:51.306Z,20.40
2018-06-28T15:38:21.109Z,20.40
2018-06-28T15:40:50.850Z,20.40
2018-06-28T15:43:25.331Z,20.40
2018-06-28T15:45:55.567Z,20.50
2018-06-28T15:48:25.332Z,20.40
2018-06-28T15:50:55.097Z,20.40
2018-06-28T15:53:24.863Z,20.40
2018-06-28T15:55:54.660Z,20.40
2018-06-28T15:58:24.455Z,20.40
2018-06-28T16:00:54.230Z,20.40
2018-06-28T16:03:23.968Z,20.40
2018-06-28T16:05:53.766Z,20.40
2018-06-28T16:08:23.518Z,20.40
2018-06-28T16:10:53.257Z,20.40
2018-06-28T16:13:22.946Z,20.20
2018-06-28T16:15:52.686Z,20.10
2018-06-28T16:18:23.090Z,20.10
2018-06-28T16:20:54.463Z,20.00
2018-06-28T16:23:24.402Z,19.90
2018-06-28T16:25:55.321Z,19.80
2018-06-28T16:28:30.970Z,19.80
2018-06-28T16:31:02.065Z,19.80
2018-06-28T16:33:32.756Z,19.70
2018-06-28T16:36:03.398Z,19.70
2018-06-28T16:38:35.249Z,19.60
2018-06-28T16:41:07.982Z,19.60
2018-06-28T16:43:39.218Z,19.70
2018-06-28T16:46:10.117Z,19.60
2018-06-28T16:48:40.482Z,19.60
2018-06-28T16:51:11.928Z,19.40
2018-06-28T16:53:42.607Z,19.30
2018-06-28T16:56:13.289Z,19.20
2018-06-28T16:58:43.170Z,19.10
2018-06-28T17:01:13.163Z,19.10
2018-06-28T17:03:43.020Z,19.10
2018-06-28T17:06:13.221Z,19.00
2018-06-28T17:08:43.942Z,19.00
2018-06-28T17:11:13.680Z,19.00
2018-06-28T17:13:44.099Z,19.00
2018-06-28T17:16:13.956Z,19.10
2018-06-28T17:18:43.995Z,19.10
2018-06-28T17:21:14.126Z,19.10
2018-06-28T17:23:43.868Z,19.00
2018-06-28T17:26:13.619Z,19.00
2018-06-28T17:28:43.374Z,19.00
2018-06-28T17:31:14.634Z,19.00
2018-06-28T17:33:48.324Z,19.00
2018-06-28T17:36:18.064Z,19.00
2018-06-28T17:38:47.806Z,19.00
2018-06-28T17:41:21.158Z,19.00
2018-06-28T17:43:53.675Z,18.90
2018-06-28T17:46:23.603Z,18.90
2018-06-28T17:48:53.310Z,18.90
2018-06-28T17:51:23.024Z,18.90
2018-06-28T17:53:52.703Z,18.80
2018-06-28T17:56:22.452Z,18.80
2018-06-28T17:58:53.156Z,18.80
2018-06-28T18:01:22.851Z,18.80
2018-06-28T18:03:52.534Z,18.60
2018-06-28T18:06:22.280Z,18.60
2018-06-28T18:08:52.122Z,18.60
2018-06-28T18:11:22.040Z,18.60
2018-06-28T18:13:51.773Z,18.60
2018-06-28T18:16:21.613Z,18.60
2018-06-28T18:18:51.330Z,18.60
2018-06-28T18:21:21.074Z,18.50
2018-06-28T18:23:50.822Z,18.50
2018-06-28T18:26:20.526Z,18.40
2018-06-28T18:28:50.284Z,18.40
2018-06-28T18:31:20.031Z,18.40
2018-06-28T18:33:49.744Z,18.40
2018-06-28T18:36:19.974Z,18.30
2018-06-28T18:38:50.130Z,18.30
2018-06-28T18:41:19.852Z,18.30
2018-06-28T18:43:49.594Z,18.30
2018-06-28T18:46:19.349Z,18.30
2018-06-28T18:48:49.094Z,18.30
2018-06-28T18:51:19.874Z,18.20
2018-06-28T18:53:56.332Z,18.20
2018-06-28T18:56:26.300Z,18.20
2018-06-28T18:58:56.487Z,18.20
2018-06-28T19:01:26.170Z,18.20
2018-06-28T19:03:56.573Z,18.20
2018-06-28T19:06:27.997Z,18.20
2018-06-28T19:08:59.659Z,18.20
2018-06-28T19:11:30.523Z,18.30
2018-06-28T19:14:06.793Z,18.20
2018-06-28T19:16:42.313Z,18.10
2018-06-28T19:19:13.014Z,18.10
2018-06-28T19:21:49.831Z,18.10
2018-06-28T19:24:19.642Z,18.10
2018-06-28T19:26:51.740Z,18.10
2018-06-28T19:29:26.836Z,18.10
2018-06-28T19:32:03.509Z,18.00
2018-06-28T19:34:37.699Z,18.00
2018-06-28T19:37:12.952Z,18.00
2018-06-28T19:39:48.101Z,18.00
2018-06-28T19:42:23.888Z,18.00
2018-06-28T19:44:56.705Z,18.00
2018-06-28T19:50:01.714Z,18.00
2018-06-28T19:52:36.778Z,18.00
2018-06-28T19:55:08.691Z,18.00
2018-06-28T19:57:41.542Z,17.90
2018-06-28T20:00:23.162Z,17.90
2018-06-28T20:03:00.608Z,17.70
2018-06-28T20:05:32.369Z,17.60
2018-06-28T20:08:08.700Z,17.60
2018-06-28T20:10:38.711Z,17.60
2018-06-28T20:13:13.879Z,17.60
2018-06-28T20:15:58.397Z,17.50
2018-06-28T20:18:33.584Z,17.60
2018-06-28T20:21:03.582Z,17.60
2018-06-28T20:23:33.844Z,17.60
2018-06-28T20:26:09.574Z,17.50
2018-06-28T20:28:44.879Z,17.50
2018-06-28T20:33:22.991Z,17.40
2018-06-28T20:35:54.105Z,17.40
2018-06-28T20:40:55.732Z,17.40
2018-06-28T20:43:25.604Z,17.40
2018-06-28T20:45:55.382Z,17.40
2018-06-28T20:48:25.122Z,17.50
2018-06-28T20:50:55.511Z,17.50
2018-06-28T20:53:25.768Z,17.40
2018-06-28T20:55:56.486Z,17.50
2018-06-28T20:58:26.586Z,17.50
2018-06-28T21:00:56.899Z,17.50
2018-06-28T21:03:27.591Z,17.50
2018-06-28T21:05:58.071Z,17.50
2018-06-28T21:08:29.634Z,17.50
2018-06-28T21:11:02.151Z,17.50
2018-06-28T21:13:31.954Z,17.50
2018-06-28T21:16:02.472Z,17.40
2018-06-28T21:18:32.934Z,17.40
2018-06-28T21:21:04.792Z,17.40
2018-06-28T21:23:34.922Z,17.50
2018-06-28T21:26:04.694Z,17.50
2018-06-28T21:28:35.192Z,17.50
2018-06-28T21:31:05.919Z,17.50
2018-06-28T21:33:35.735Z,17.50
2018-06-28T21:36:05.848Z,17.50
2018-06-28T21:38:37.328Z,17.50
2018-06-28T21:41:08.408Z,17.50
2018-06-28T21:43:38.894Z,17.50
2018-06-28T21:46:08.765Z,17.50
2018-06-28T21:48:38.474Z,17.40
2018-06-28T21:51:08.351Z,17.40
2018-06-28T21:53:38.065Z,17.40
2018-06-28T21:56:07.803Z,17.30
2018-06-28T21:58:37.565Z,17.40
2018-06-28T22:01:07.351Z,17.40
2018-06-28T22:03:37.105Z,17.40
2018-06-28T22:06:06.823Z,17.40
2018-06-28T22:08:36.631Z,17.40
2018-06-28T22:11:06.416Z,17.40
2018-06-28T22:13:36.175Z,17.40
2018-06-28T22:16:05.999Z,17.40
2018-06-28T22:18:35.715Z,17.40
2018-06-28T22:21:05.487Z,17.40
2018-06-28T22:23:35.263Z,17.40
2018-06-28T22:26:05.140Z,17.40
2018-06-28T22:28:34.991Z,17.30
2018-06-28T22:31:04.710Z,17.40
2018-06-28T22:33:34.438Z,17.40
2018-06-28T22:36:04.216Z,17.40
2018-06-28T22:38:33.931Z,17.40
2018-06-28T22:41:03.683Z,17.40
2018-06-28T22:43:33.391Z,17.40
2018-06-28T22:46:03.114Z,17.40
2018-06-28T22:48:32.824Z,17.40
2018-06-28T22:51:02.550Z,17.40
2018-06-28T22:53:32.257Z,17.40
2018-06-28T22:56:02.006Z,17.40
2018-06-28T22:58:31.706Z,17.40
2018-06-28T23:01:01.447Z,17.40
2018-06-28T23:03:31.164Z,17.40
2018-06-28T23:06:00.922Z,17.40
2018-06-28T23:08:30.642Z,17.40
2018-06-28T23:11:00.375Z,17.40
2018-06-28T23:13:30.109Z,17.30
2018-06-28T23:15:59.864Z,17.40
2018-06-28T23:18:29.596Z,17.30
2018-06-28T23:20:59.344Z,17.30
2018-06-28T23:23:29.098Z,17.20
2018-06-28T23:25:58.799Z,17.30
2018-06-28T23:28:28.519Z,17.30
2018-06-28T23:30:58.256Z,17.30
2018-06-28T23:33:27.987Z,17.30
2018-06-28T23:35:57.728Z,17.30
2018-06-28T23:38:27.450Z,17.30
2018-06-28T23:40:57.160Z,17.40
2018-06-28T23:43:26.891Z,17.30
2018-06-28T23:46:01.418Z,17.40
2018-06-28T23:48:31.158Z,17.40
2018-06-28T23:51:00.936Z,17.40
2018-06-28T23:53:30.706Z,17.40
2018-06-28T23:56:00.442Z,17.40
